sensor_id;sensor_type;location;lat;lon;timestamp;P1;durP1;ratioP1;P2;durP2;ratioP2
17596;SDS011;8917;50.942;6.946;2023-08-12T00:00:17;14.95;;;9.48;;
17596;SDS011;8917;50.942;6.946;2023-08-12T00:02:45;13.20;;;9.95;;
17596;SDS011;8917;50.942;6.946;2023-08-12T00:05:12;12.02;;;8.45;;
17596;SDS011;8917;50.942;6.946;2023-08-12T00:07:41;11.02;;;8.80;;
17596;SDS011;8917;50.942;6.946;2023-08-12T00:10:10;13.10;;;9.38;;
17596;SDS011;8917;50.942;6.946;2023-08-12T00:12:37;14.02;;;9.88;;
17596;SDS011;8917;50.942;6.946;2023-08-12T00:15:05;11.82;;;9.25;;
17596;SDS011;8917;50.942;6.946;2023-08-12T00:17:33;13.93;;;10.50;;
17596;SDS011;8917;50.942;6.946;2023-08-12T00:20:02;12.05;;;9.85;;
17596;SDS011;8917;50.942;6.946;2023-08-12T00:22:32;10.77;;;9.25;;
17596;SDS011;8917;50.942;6.946;2023-08-12T00:25:01;13.93;;;9.85;;
17596;SDS011;8917;50.942;6.946;2023-08-12T00:27:28;12.27;;;9.20;;
17596;SDS011;8917;50.942;6.946;2023-08-12T00:29:56;12.45;;;9.00;;
17596;SDS011;8917;50.942;6.946;2023-08-12T00:32:23;10.80;;;8.73;;
17596;SDS011;8917;50.942;6.946;2023-08-12T00:34:51;10.73;;;8.20;;
17596;SDS011;8917;50.942;6.946;2023-08-12T00:37:18;10.98;;;7.90;;
17596;SDS011;8917;50.942;6.946;2023-08-12T00:39:46;12.00;;;8.95;;
17596;SDS011;8917;50.942;6.946;2023-08-12T00:42:14;11.23;;;8.32;;
17596;SDS011;8917;50.942;6.946;2023-08-12T00:44:42;11.10;;;8.80;;
17596;SDS011;8917;50.942;6.946;2023-08-12T00:47:09;10.57;;;8.65;;
17596;SDS011;8917;50.942;6.946;2023-08-12T00:49:37;11.63;;;8.63;;
17596;SDS011;8917;50.942;6.946;2023-08-12T00:52:08;12.48;;;8.13;;
17596;SDS011;8917;50.942;6.946;2023-08-12T00:54:36;13.00;;;8.93;;
17596;SDS011;8917;50.942;6.946;2023-08-12T00:57:03;11.05;;;8.82;;
17596;SDS011;8917;50.942;6.946;2023-08-12T00:59:33;10.52;;;8.70;;
17596;SDS011;8917;50.942;6.946;2023-08-12T01:02:02;10.63;;;7.70;;
17596;SDS011;8917;50.942;6.946;2023-08-12T01:04:30;10.68;;;8.57;;
17596;SDS011;8917;50.942;6.946;2023-08-12T01:06:57;12.82;;;8.52;;
17596;SDS011;8917;50.942;6.946;2023-08-12T01:09:25;10.20;;;8.30;;
17596;SDS011;8917;50.942;6.946;2023-08-12T01:11:55;11.30;;;7.97;;
17596;SDS011;8917;50.942;6.946;2023-08-12T01:14:33;11.38;;;8.93;;
17596;SDS011;8917;50.942;6.946;2023-08-12T01:17:05;12.85;;;9.20;;
17596;SDS011;8917;50.942;6.946;2023-08-12T01:19:34;11.00;;;8.82;;
17596;SDS011;8917;50.942;6.946;2023-08-12T01:22:03;12.80;;;9.50;;
17596;SDS011;8917;50.942;6.946;2023-08-12T01:24:35;11.55;;;9.48;;
17596;SDS011;8917;50.942;6.946;2023-08-12T01:27:03;11.45;;;9.00;;
17596;SDS011;8917;50.942;6.946;2023-08-12T01:29:31;11.85;;;9.65;;
17596;SDS011;8917;50.942;6.946;2023-08-12T01:32:01;11.60;;;9.80;;
17596;SDS011;8917;50.942;6.946;2023-08-12T01:34:36;15.77;;;9.80;;
17596;SDS011;8917;50.942;6.946;2023-08-12T01:37:06;12.20;;;10.05;;
17596;SDS011;8917;50.942;6.946;2023-08-12T01:39:37;15.70;;;11.60;;
17596;SDS011;8917;50.942;6.946;2023-08-12T01:42:06;15.40;;;12.27;;
17596;SDS011;8917;50.942;6.946;2023-08-12T01:44:34;15.50;;;12.52;;
17596;SDS011;8917;50.942;6.946;2023-08-12T01:47:01;15.05;;;12.45;;
17596;SDS011;8917;50.942;6.946;2023-08-12T01:49:29;17.13;;;14.52;;
17596;SDS011;8917;50.942;6.946;2023-08-12T01:51:56;16.08;;;13.57;;
17596;SDS011;8917;50.942;6.946;2023-08-12T01:54:24;17.15;;;14.18;;
17596;SDS011;8917;50.942;6.946;2023-08-12T01:56:52;22.10;;;14.80;;
17596;SDS011;8917;50.942;6.946;2023-08-12T01:59:20;16.40;;;13.73;;
17596;SDS011;8917;50.942;6.946;2023-08-12T02:01:47;16.02;;;14.30;;
17596;SDS011;8917;50.942;6.946;2023-08-12T02:04:14;19.65;;;14.10;;
17596;SDS011;8917;50.942;6.946;2023-08-12T02:06:42;17.38;;;14.10;;
17596;SDS011;8917;50.942;6.946;2023-08-12T02:09:09;15.80;;;13.07;;
17596;SDS011;8917;50.942;6.946;2023-08-12T02:11:37;14.45;;;12.05;;
17596;SDS011;8917;50.942;6.946;2023-08-12T02:14:06;13.85;;;11.95;;
17596;SDS011;8917;50.942;6.946;2023-08-12T02:16:33;11.90;;;10.30;;
17596;SDS011;8917;50.942;6.946;2023-08-12T02:19:00;16.23;;;12.93;;
17596;SDS011;8917;50.942;6.946;2023-08-12T02:21:28;16.02;;;13.10;;
17596;SDS011;8917;50.942;6.946;2023-08-12T02:23:55;16.77;;;14.00;;
17596;SDS011;8917;50.942;6.946;2023-08-12T02:26:22;15.75;;;13.23;;
17596;SDS011;8917;50.942;6.946;2023-08-12T02:28:50;15.13;;;13.55;;
17596;SDS011;8917;50.942;6.946;2023-08-12T02:31:19;13.38;;;11.65;;
17596;SDS011;8917;50.942;6.946;2023-08-12T02:33:46;16.30;;;12.80;;
17596;SDS011;8917;50.942;6.946;2023-08-12T02:36:14;13.05;;;11.50;;
17596;SDS011;8917;50.942;6.946;2023-08-12T02:38:42;14.02;;;12.20;;
17596;SDS011;8917;50.942;6.946;2023-08-12T02:41:09;13.88;;;10.68;;
17596;SDS011;8917;50.942;6.946;2023-08-12T02:43:36;14.40;;;11.40;;
17596;SDS011;8917;50.942;6.946;2023-08-12T02:46:04;15.68;;;10.93;;
17596;SDS011;8917;50.942;6.946;2023-08-12T02:48:33;13.10;;;10.18;;
17596;SDS011;8917;50.942;6.946;2023-08-12T02:51:01;11.65;;;9.85;;
17596;SDS011;8917;50.942;6.946;2023-08-12T02:53:28;12.93;;;10.38;;
17596;SDS011;8917;50.942;6.946;2023-08-12T02:55:56;12.63;;;9.32;;
17596;SDS011;8917;50.942;6.946;2023-08-12T02:58:23;10.90;;;9.57;;
17596;SDS011;8917;50.942;6.946;2023-08-12T03:00:51;11.77;;;9.52;;
17596;SDS011;8917;50.942;6.946;2023-08-12T03:03:18;10.45;;;8.70;;
17596;SDS011;8917;50.942;6.946;2023-08-12T03:05:48;11.93;;;9.23;;
17596;SDS011;8917;50.942;6.946;2023-08-12T03:08:15;10.40;;;8.85;;
17596;SDS011;8917;50.942;6.946;2023-08-12T03:10:44;10.10;;;8.45;;
17596;SDS011;8917;50.942;6.946;2023-08-12T03:13:11;11.70;;;9.07;;
17596;SDS011;8917;50.942;6.946;2023-08-12T03:15:39;9.85;;;8.57;;
17596;SDS011;8917;50.942;6.946;2023-08-12T03:18:08;10.68;;;8.35;;
17596;SDS011;8917;50.942;6.946;2023-08-12T03:20:36;10.23;;;9.15;;
17596;SDS011;8917;50.942;6.946;2023-08-12T03:23:05;10.77;;;8.50;;
17596;SDS011;8917;50.942;6.946;2023-08-12T03:25:33;11.75;;;9.23;;
17596;SDS011;8917;50.942;6.946;2023-08-12T03:28:00;12.52;;;9.50;;
17596;SDS011;8917;50.942;6.946;2023-08-12T03:30:28;12.18;;;8.90;;
17596;SDS011;8917;50.942;6.946;2023-08-12T03:32:56;11.20;;;8.82;;
17596;SDS011;8917;50.942;6.946;2023-08-12T03:35:23;9.10;;;7.82;;
17596;SDS011;8917;50.942;6.946;2023-08-12T03:37:51;11.07;;;8.82;;
17596;SDS011;8917;50.942;6.946;2023-08-12T03:40:20;10.52;;;8.55;;
17596;SDS011;8917;50.942;6.946;2023-08-12T03:42:48;9.45;;;7.47;;
17596;SDS011;8917;50.942;6.946;2023-08-12T03:45:15;10.05;;;8.15;;
17596;SDS011;8917;50.942;6.946;2023-08-12T03:47:42;10.20;;;8.13;;
17596;SDS011;8917;50.942;6.946;2023-08-12T03:50:10;8.70;;;7.82;;
17596;SDS011;8917;50.942;6.946;2023-08-12T03:52:37;10.18;;;7.90;;
17596;SDS011;8917;50.942;6.946;2023-08-12T03:55:04;10.48;;;7.68;;
17596;SDS011;8917;50.942;6.946;2023-08-12T03:57:33;9.05;;;7.00;;
17596;SDS011;8917;50.942;6.946;2023-08-12T04:00:00;9.20;;;7.03;;
17596;SDS011;8917;50.942;6.946;2023-08-12T04:02:29;8.20;;;6.60;;
17596;SDS011;8917;50.942;6.946;2023-08-12T04:04:56;9.07;;;6.85;;
17596;SDS011;8917;50.942;6.946;2023-08-12T04:07:23;6.93;;;6.07;;
17596;SDS011;8917;50.942;6.946;2023-08-12T04:09:52;9.68;;;6.20;;
17596;SDS011;8917;50.942;6.946;2023-08-12T04:12:19;7.32;;;6.03;;
17596;SDS011;8917;50.942;6.946;2023-08-12T04:14:47;7.90;;;5.82;;
17596;SDS011;8917;50.942;6.946;2023-08-12T04:17:15;7.00;;;5.63;;
17596;SDS011;8917;50.942;6.946;2023-08-12T04:19:42;8.50;;;6.10;;
17596;SDS011;8917;50.942;6.946;2023-08-12T04:22:09;6.68;;;6.03;;
17596;SDS011;8917;50.942;6.946;2023-08-12T04:24:36;7.25;;;6.15;;
17596;SDS011;8917;50.942;6.946;2023-08-12T04:27:03;6.72;;;5.45;;
17596;SDS011;8917;50.942;6.946;2023-08-12T04:29:31;6.82;;;6.13;;
17596;SDS011;8917;50.942;6.946;2023-08-12T04:31:59;8.07;;;6.15;;
17596;SDS011;8917;50.942;6.946;2023-08-12T04:34:27;7.07;;;6.38;;
17596;SDS011;8917;50.942;6.946;2023-08-12T04:36:54;8.38;;;6.45;;
17596;SDS011;8917;50.942;6.946;2023-08-12T04:39:21;10.02;;;7.15;;
17596;SDS011;8917;50.942;6.946;2023-08-12T04:41:49;7.85;;;6.35;;
17596;SDS011;8917;50.942;6.946;2023-08-12T04:44:16;9.68;;;7.55;;
17596;SDS011;8917;50.942;6.946;2023-08-12T04:46:43;8.02;;;7.22;;
17596;SDS011;8917;50.942;6.946;2023-08-12T04:49:12;9.18;;;6.70;;
17596;SDS011;8917;50.942;6.946;2023-08-12T04:51:39;7.30;;;6.03;;
17596;SDS011;8917;50.942;6.946;2023-08-12T04:54:07;9.07;;;6.35;;
17596;SDS011;8917;50.942;6.946;2023-08-12T04:56:34;8.13;;;7.15;;
17596;SDS011;8917;50.942;6.946;2023-08-12T04:59:01;7.43;;;6.20;;
17596;SDS011;8917;50.942;6.946;2023-08-12T05:01:28;7.88;;;6.43;;
17596;SDS011;8917;50.942;6.946;2023-08-12T05:03:55;8.48;;;6.50;;
17596;SDS011;8917;50.942;6.946;2023-08-12T05:06:24;7.75;;;6.80;;
17596;SDS011;8917;50.942;6.946;2023-08-12T05:08:51;7.35;;;6.18;;
17596;SDS011;8917;50.942;6.946;2023-08-12T05:11:18;6.15;;;5.47;;
17596;SDS011;8917;50.942;6.946;2023-08-12T05:13:46;7.63;;;5.88;;
17596;SDS011;8917;50.942;6.946;2023-08-12T05:16:13;8.05;;;5.93;;
17596;SDS011;8917;50.942;6.946;2023-08-12T05:18:40;7.57;;;5.70;;
17596;SDS011;8917;50.942;6.946;2023-08-12T05:21:07;8.00;;;6.38;;
17596;SDS011;8917;50.942;6.946;2023-08-12T05:23:36;6.47;;;5.13;;
17596;SDS011;8917;50.942;6.946;2023-08-12T05:26:03;6.28;;;5.68;;
17596;SDS011;8917;50.942;6.946;2023-08-12T05:28:30;7.57;;;5.50;;
17596;SDS011;8917;50.942;6.946;2023-08-12T05:30:57;9.32;;;5.40;;
17596;SDS011;8917;50.942;6.946;2023-08-12T05:33:25;6.43;;;5.43;;
17596;SDS011;8917;50.942;6.946;2023-08-12T05:35:52;6.97;;;5.10;;
17596;SDS011;8917;50.942;6.946;2023-08-12T05:38:20;6.78;;;5.28;;
17596;SDS011;8917;50.942;6.946;2023-08-12T05:40:48;6.78;;;4.93;;
17596;SDS011;8917;50.942;6.946;2023-08-12T05:43:15;8.63;;;5.20;;
17596;SDS011;8917;50.942;6.946;2023-08-12T05:45:43;5.78;;;4.88;;
17596;SDS011;8917;50.942;6.946;2023-08-12T05:48:10;5.90;;;5.35;;
17596;SDS011;8917;50.942;6.946;2023-08-12T05:50:38;6.68;;;4.88;;
17596;SDS011;8917;50.942;6.946;2023-08-12T05:53:05;6.50;;;5.90;;
17596;SDS011;8917;50.942;6.946;2023-08-12T05:55:33;7.20;;;5.45;;
17596;SDS011;8917;50.942;6.946;2023-08-12T05:58:02;7.38;;;6.10;;
17596;SDS011;8917;50.942;6.946;2023-08-12T06:00:29;6.70;;;5.97;;
17596;SDS011;8917;50.942;6.946;2023-08-12T06:02:57;6.20;;;5.60;;
17596;SDS011;8917;50.942;6.946;2023-08-12T06:05:24;6.97;;;6.28;;
17596;SDS011;8917;50.942;6.946;2023-08-12T06:07:51;6.93;;;6.07;;
17596;SDS011;8917;50.942;6.946;2023-08-12T06:10:18;7.28;;;5.85;;
17596;SDS011;8917;50.942;6.946;2023-08-12T06:12:46;6.88;;;6.15;;
17596;SDS011;8917;50.942;6.946;2023-08-12T06:15:14;7.90;;;5.90;;
17596;SDS011;8917;50.942;6.946;2023-08-12T06:17:41;8.63;;;6.15;;
17596;SDS011;8917;50.942;6.946;2023-08-12T06:20:09;9.07;;;6.38;;
17596;SDS011;8917;50.942;6.946;2023-08-12T06:22:36;27.65;;;24.50;;
17596;SDS011;8917;50.942;6.946;2023-08-12T06:25:04;10.15;;;7.68;;
17596;SDS011;8917;50.942;6.946;2023-08-12T06:27:31;6.80;;;6.10;;
17596;SDS011;8917;50.942;6.946;2023-08-12T06:29:58;7.63;;;5.22;;
17596;SDS011;8917;50.942;6.946;2023-08-12T06:32:27;6.32;;;4.78;;
17596;SDS011;8917;50.942;6.946;2023-08-12T06:34:54;7.90;;;4.53;;
17596;SDS011;8917;50.942;6.946;2023-08-12T06:37:22;6.45;;;4.40;;
17596;SDS011;8917;50.942;6.946;2023-08-12T06:39:49;5.68;;;4.10;;
17596;SDS011;8917;50.942;6.946;2023-08-12T06:42:17;4.75;;;4.07;;
17596;SDS011;8917;50.942;6.946;2023-08-12T06:44:44;3.38;;;3.08;;
17596;SDS011;8917;50.942;6.946;2023-08-12T06:47:11;4.53;;;3.70;;
17596;SDS011;8917;50.942;6.946;2023-08-12T06:49:40;4.03;;;3.55;;
17596;SDS011;8917;50.942;6.946;2023-08-12T06:52:07;5.07;;;3.10;;
17596;SDS011;8917;50.942;6.946;2023-08-12T06:54:35;5.70;;;3.28;;
17596;SDS011;8917;50.942;6.946;2023-08-12T06:57:02;4.55;;;3.20;;
17596;SDS011;8917;50.942;6.946;2023-08-12T06:59:29;3.25;;;2.83;;
17596;SDS011;8917;50.942;6.946;2023-08-12T07:01:57;4.70;;;3.42;;
17596;SDS011;8917;50.942;6.946;2023-08-12T07:04:24;4.55;;;2.90;;
17596;SDS011;8917;50.942;6.946;2023-08-12T07:06:53;4.93;;;2.90;;
17596;SDS011;8917;50.942;6.946;2023-08-12T07:09:20;6.03;;;3.00;;
17596;SDS011;8917;50.942;6.946;2023-08-12T07:11:47;5.85;;;3.28;;
17596;SDS011;8917;50.942;6.946;2023-08-12T07:14:14;4.60;;;3.60;;
17596;SDS011;8917;50.942;6.946;2023-08-12T07:16:42;3.97;;;2.70;;
17596;SDS011;8917;50.942;6.946;2023-08-12T07:19:09;5.65;;;3.35;;
17596;SDS011;8917;50.942;6.946;2023-08-12T07:21:36;5.63;;;3.17;;
17596;SDS011;8917;50.942;6.946;2023-08-12T07:24:05;3.47;;;2.65;;
17596;SDS011;8917;50.942;6.946;2023-08-12T07:26:32;3.10;;;2.78;;
17596;SDS011;8917;50.942;6.946;2023-08-12T07:29:00;3.38;;;3.00;;
17596;SDS011;8917;50.942;6.946;2023-08-12T07:31:27;5.65;;;3.35;;
17596;SDS011;8917;50.942;6.946;2023-08-12T07:33:54;3.78;;;2.83;;
17596;SDS011;8917;50.942;6.946;2023-08-12T07:36:21;3.70;;;2.80;;
17596;SDS011;8917;50.942;6.946;2023-08-12T07:38:49;3.60;;;2.80;;
17596;SDS011;8917;50.942;6.946;2023-08-12T07:41:18;3.17;;;2.90;;
17596;SDS011;8917;50.942;6.946;2023-08-12T07:43:45;4.40;;;2.80;;
17596;SDS011;8917;50.942;6.946;2023-08-12T07:46:12;2.95;;;2.75;;
17596;SDS011;8917;50.942;6.946;2023-08-12T07:48:40;6.55;;;2.78;;
17596;SDS011;8917;50.942;6.946;2023-08-12T07:51:07;3.13;;;2.80;;
17596;SDS011;8917;50.942;6.946;2023-08-12T07:53:36;5.63;;;2.55;;
17596;SDS011;8917;50.942;6.946;2023-08-12T07:56:04;4.28;;;3.03;;
17596;SDS011;8917;50.942;6.946;2023-08-12T07:58:33;3.75;;;2.80;;
17596;SDS011;8917;50.942;6.946;2023-08-12T08:01:01;3.83;;;2.80;;
17596;SDS011;8917;50.942;6.946;2023-08-12T08:03:29;3.63;;;2.80;;
17596;SDS011;8917;50.942;6.946;2023-08-12T08:05:57;4.75;;;3.00;;
17596;SDS011;8917;50.942;6.946;2023-08-12T08:08:24;3.13;;;2.30;;
17596;SDS011;8917;50.942;6.946;2023-08-12T08:10:52;4.32;;;2.50;;
17596;SDS011;8917;50.942;6.946;2023-08-12T08:13:19;2.78;;;2.50;;
17596;SDS011;8917;50.942;6.946;2023-08-12T08:15:48;4.05;;;3.08;;
17596;SDS011;8917;50.942;6.946;2023-08-12T08:18:15;3.40;;;2.58;;
17596;SDS011;8917;50.942;6.946;2023-08-12T08:20:43;4.22;;;2.63;;
17596;SDS011;8917;50.942;6.946;2023-08-12T08:23:10;3.78;;;2.83;;
17596;SDS011;8917;50.942;6.946;2023-08-12T08:25:41;4.00;;;3.60;;
17596;SDS011;8917;50.942;6.946;2023-08-12T08:28:08;2.95;;;2.70;;
17596;SDS011;8917;50.942;6.946;2023-08-12T08:30:36;3.83;;;3.17;;
17596;SDS011;8917;50.942;6.946;2023-08-12T08:33:08;6.50;;;3.40;;
17596;SDS011;8917;50.942;6.946;2023-08-12T08:35:35;5.03;;;2.80;;
17596;SDS011;8917;50.942;6.946;2023-08-12T08:38:03;3.13;;;2.75;;
17596;SDS011;8917;50.942;6.946;2023-08-12T08:40:31;3.35;;;3.05;;
17596;SDS011;8917;50.942;6.946;2023-08-12T08:42:59;4.22;;;3.15;;
17596;SDS011;8917;50.942;6.946;2023-08-12T08:45:28;3.03;;;2.72;;
17596;SDS011;8917;50.942;6.946;2023-08-12T08:47:59;3.90;;;3.00;;
17596;SDS011;8917;50.942;6.946;2023-08-12T08:50:28;4.50;;;3.42;;
17596;SDS011;8917;50.942;6.946;2023-08-12T08:52:56;4.80;;;2.80;;
17596;SDS011;8917;50.942;6.946;2023-08-12T08:55:24;4.85;;;2.80;;
17596;SDS011;8917;50.942;6.946;2023-08-12T08:57:51;3.60;;;2.70;;
17596;SDS011;8917;50.942;6.946;2023-08-12T09:00:19;3.47;;;2.80;;
17596;SDS011;8917;50.942;6.946;2023-08-12T09:02:47;3.10;;;2.80;;
17596;SDS011;8917;50.942;6.946;2023-08-12T09:05:16;4.07;;;2.95;;
17596;SDS011;8917;50.942;6.946;2023-08-12T09:07:47;5.47;;;2.83;;
17596;SDS011;8917;50.942;6.946;2023-08-12T09:10:15;6.05;;;3.03;;
17596;SDS011;8917;50.942;6.946;2023-08-12T09:12:44;3.90;;;2.80;;
17596;SDS011;8917;50.942;6.946;2023-08-12T09:15:12;3.80;;;2.78;;
17596;SDS011;8917;50.942;6.946;2023-08-12T09:17:40;5.55;;;2.67;;
17596;SDS011;8917;50.942;6.946;2023-08-12T09:20:07;3.03;;;2.55;;
17596;SDS011;8917;50.942;6.946;2023-08-12T09:22:37;2.50;;;2.30;;
17596;SDS011;8917;50.942;6.946;2023-08-12T09:25:06;3.33;;;2.70;;
17596;SDS011;8917;50.942;6.946;2023-08-12T09:27:34;5.05;;;2.50;;
17596;SDS011;8917;50.942;6.946;2023-08-12T09:30:03;4.78;;;2.78;;
17596;SDS011;8917;50.942;6.946;2023-08-12T09:32:31;3.08;;;2.70;;
17596;SDS011;8917;50.942;6.946;2023-08-12T09:34:59;3.80;;;3.00;;
17596;SDS011;8917;50.942;6.946;2023-08-12T09:37:30;3.17;;;2.47;;
17596;SDS011;8917;50.942;6.946;2023-08-12T09:40:00;2.60;;;2.40;;
17596;SDS011;8917;50.942;6.946;2023-08-12T09:42:32;3.10;;;2.80;;
17596;SDS011;8917;50.942;6.946;2023-08-12T09:45:00;2.58;;;2.38;;
17596;SDS011;8917;50.942;6.946;2023-08-12T09:47:28;2.97;;;2.40;;
17596;SDS011;8917;50.942;6.946;2023-08-12T09:49:55;3.20;;;2.47;;
17596;SDS011;8917;50.942;6.946;2023-08-12T09:52:23;4.65;;;2.70;;
17596;SDS011;8917;50.942;6.946;2023-08-12T09:54:51;4.25;;;2.75;;
17596;SDS011;8917;50.942;6.946;2023-08-12T09:57:19;3.75;;;2.70;;
17596;SDS011;8917;50.942;6.946;2023-08-12T09:59:49;3.50;;;2.50;;
17596;SDS011;8917;50.942;6.946;2023-08-12T10:02:16;4.53;;;2.58;;
17596;SDS011;8917;50.942;6.946;2023-08-12T10:04:44;2.95;;;2.63;;
17596;SDS011;8917;50.942;6.946;2023-08-12T10:07:13;2.50;;;2.30;;
17596;SDS011;8917;50.942;6.946;2023-08-12T10:09:41;3.47;;;2.30;;
17596;SDS011;8917;50.942;6.946;2023-08-12T10:12:09;4.10;;;2.58;;
17596;SDS011;8917;50.942;6.946;2023-08-12T10:14:38;5.43;;;2.60;;
17596;SDS011;8917;50.942;6.946;2023-08-12T10:17:07;4.13;;;2.88;;
17596;SDS011;8917;50.942;6.946;2023-08-12T10:19:35;5.10;;;2.95;;
17596;SDS011;8917;50.942;6.946;2023-08-12T10:22:03;2.80;;;2.38;;
17596;SDS011;8917;50.942;6.946;2023-08-12T10:24:30;3.80;;;2.97;;
17596;SDS011;8917;50.942;6.946;2023-08-12T10:26:58;3.13;;;2.50;;
17596;SDS011;8917;50.942;6.946;2023-08-12T10:29:26;3.38;;;2.58;;
17596;SDS011;8917;50.942;6.946;2023-08-12T10:31:53;4.03;;;2.88;;
17596;SDS011;8917;50.942;6.946;2023-08-12T10:34:22;2.60;;;2.35;;
17596;SDS011;8917;50.942;6.946;2023-08-12T10:36:53;2.88;;;2.58;;
17596;SDS011;8917;50.942;6.946;2023-08-12T10:39:24;2.10;;;1.90;;
17596;SDS011;8917;50.942;6.946;2023-08-12T10:41:52;2.25;;;1.90;;
17596;SDS011;8917;50.942;6.946;2023-08-12T10:44:21;2.80;;;1.90;;
17596;SDS011;8917;50.942;6.946;2023-08-12T10:46:50;2.65;;;2.30;;
17596;SDS011;8917;50.942;6.946;2023-08-12T10:49:18;2.80;;;2.10;;
17596;SDS011;8917;50.942;6.946;2023-08-12T10:51:47;2.70;;;1.73;;
17596;SDS011;8917;50.942;6.946;2023-08-12T10:54:16;2.13;;;1.90;;
17596;SDS011;8917;50.942;6.946;2023-08-12T10:59:50;2.13;;;1.88;;
17596;SDS011;8917;50.942;6.946;2023-08-12T11:02:18;1.92;;;1.83;;
17596;SDS011;8917;50.942;6.946;2023-08-12T11:04:48;2.15;;;1.50;;
17596;SDS011;8917;50.942;6.946;2023-08-12T11:07:17;2.10;;;1.50;;
17596;SDS011;8917;50.942;6.946;2023-08-12T11:09:45;1.70;;;1.60;;
17596;SDS011;8917;50.942;6.946;2023-08-12T11:12:16;2.72;;;1.85;;
17596;SDS011;8917;50.942;6.946;2023-08-12T11:14:47;2.50;;;2.05;;
17596;SDS011;8917;50.942;6.946;2023-08-12T11:17:15;1.75;;;1.65;;
17596;SDS011;8917;50.942;6.946;2023-08-12T11:19:43;2.05;;;1.83;;
17596;SDS011;8917;50.942;6.946;2023-08-12T11:22:10;1.90;;;1.80;;
17596;SDS011;8917;50.942;6.946;2023-08-12T11:24:41;2.15;;;1.90;;
17596;SDS011;8917;50.942;6.946;2023-08-12T11:27:09;3.30;;;2.30;;
17596;SDS011;8917;50.942;6.946;2023-08-12T11:29:37;3.83;;;2.40;;
17596;SDS011;8917;50.942;6.946;2023-08-12T11:32:05;1.90;;;1.77;;
17596;SDS011;8917;50.942;6.946;2023-08-12T11:34:32;2.13;;;1.83;;
17596;SDS011;8917;50.942;6.946;2023-08-12T11:37:00;2.10;;;1.90;;
17596;SDS011;8917;50.942;6.946;2023-08-12T11:39:27;2.55;;;2.15;;
17596;SDS011;8917;50.942;6.946;2023-08-12T11:41:56;3.30;;;2.55;;
17596;SDS011;8917;50.942;6.946;2023-08-12T11:44:24;2.30;;;2.10;;
17596;SDS011;8917;50.942;6.946;2023-08-12T11:46:51;3.00;;;2.00;;
17596;SDS011;8917;50.942;6.946;2023-08-12T11:49:19;2.30;;;2.00;;
17596;SDS011;8917;50.942;6.946;2023-08-12T11:51:46;2.00;;;1.83;;
17596;SDS011;8917;50.942;6.946;2023-08-12T11:54:15;2.33;;;2.10;;
17596;SDS011;8917;50.942;6.946;2023-08-12T11:56:43;2.10;;;1.90;;
17596;SDS011;8917;50.942;6.946;2023-08-12T11:59:11;1.85;;;1.75;;
17596;SDS011;8917;50.942;6.946;2023-08-12T12:01:39;3.58;;;2.60;;
17596;SDS011;8917;50.942;6.946;2023-08-12T12:04:11;2.20;;;2.00;;
17596;SDS011;8917;50.942;6.946;2023-08-12T12:06:38;3.10;;;2.60;;
17596;SDS011;8917;50.942;6.946;2023-08-12T12:09:06;2.75;;;1.90;;
17596;SDS011;8917;50.942;6.946;2023-08-12T12:11:35;8.88;;;8.02;;
17596;SDS011;8917;50.942;6.946;2023-08-12T12:14:03;2.10;;;1.90;;
17596;SDS011;8917;50.942;6.946;2023-08-12T12:16:41;1.90;;;1.70;;
17596;SDS011;8917;50.942;6.946;2023-08-12T12:19:12;2.17;;;1.80;;
17596;SDS011;8917;50.942;6.946;2023-08-12T12:21:41;3.15;;;1.90;;
17596;SDS011;8917;50.942;6.946;2023-08-12T12:24:08;2.70;;;2.40;;
17596;SDS011;8917;50.942;6.946;2023-08-12T12:26:36;3.70;;;1.92;;
17596;SDS011;8917;50.942;6.946;2023-08-12T12:29:04;2.30;;;2.05;;
17596;SDS011;8917;50.942;6.946;2023-08-12T12:31:32;3.13;;;1.80;;
17596;SDS011;8917;50.942;6.946;2023-08-12T12:34:02;2.30;;;2.10;;
17596;SDS011;8917;50.942;6.946;2023-08-12T12:36:31;2.55;;;2.35;;
17596;SDS011;8917;50.942;6.946;2023-08-12T12:38:59;3.35;;;2.50;;
17596;SDS011;8917;50.942;6.946;2023-08-12T12:41:27;2.13;;;1.88;;
17596;SDS011;8917;50.942;6.946;2023-08-12T12:43:54;2.22;;;2.03;;
17596;SDS011;8917;50.942;6.946;2023-08-12T12:46:21;2.30;;;2.10;;
17596;SDS011;8917;50.942;6.946;2023-08-12T12:48:49;2.92;;;2.10;;
17596;SDS011;8917;50.942;6.946;2023-08-12T12:51:18;2.20;;;1.85;;
17596;SDS011;8917;50.942;6.946;2023-08-12T12:53:45;8.98;;;8.13;;
17596;SDS011;8917;50.942;6.946;2023-08-12T12:56:13;2.60;;;2.20;;
17596;SDS011;8917;50.942;6.946;2023-08-12T12:58:40;6.35;;;2.50;;
17596;SDS011;8917;50.942;6.946;2023-08-12T13:01:07;3.47;;;1.80;;
17596;SDS011;8917;50.942;6.946;2023-08-12T13:03:35;3.15;;;1.75;;
17596;SDS011;8917;50.942;6.946;2023-08-12T13:06:03;3.35;;;2.13;;
17596;SDS011;8917;50.942;6.946;2023-08-12T13:08:32;2.25;;;1.52;;
17596;SDS011;8917;50.942;6.946;2023-08-12T13:10:59;1.70;;;1.60;;
17596;SDS011;8917;50.942;6.946;2023-08-12T13:13:27;2.50;;;2.30;;
17596;SDS011;8917;50.942;6.946;2023-08-12T13:15:54;2.13;;;1.92;;
17596;SDS011;8917;50.942;6.946;2023-08-12T13:18:22;2.75;;;1.70;;
17596;SDS011;8917;50.942;6.946;2023-08-12T13:20:49;1.50;;;1.40;;
17596;SDS011;8917;50.942;6.946;2023-08-12T13:23:16;2.47;;;1.83;;
17596;SDS011;8917;50.942;6.946;2023-08-12T13:25:45;2.80;;;1.42;;
17596;SDS011;8917;50.942;6.946;2023-08-12T13:28:13;1.98;;;1.13;;
17596;SDS011;8917;50.942;6.946;2023-08-12T13:30:40;1.83;;;1.30;;
17596;SDS011;8917;50.942;6.946;2023-08-12T13:33:08;2.58;;;1.35;;
17596;SDS011;8917;50.942;6.946;2023-08-12T13:35:35;1.30;;;1.05;;
17596;SDS011;8917;50.942;6.946;2023-08-12T13:38:03;2.30;;;1.10;;
17596;SDS011;8917;50.942;6.946;2023-08-12T13:40:30;1.20;;;1.00;;
17596;SDS011;8917;50.942;6.946;2023-08-12T13:42:59;1.30;;;1.20;;
17596;SDS011;8917;50.942;6.946;2023-08-12T13:45:27;1.45;;;1.35;;
17596;SDS011;8917;50.942;6.946;2023-08-12T13:47:54;1.30;;;1.20;;
17596;SDS011;8917;50.942;6.946;2023-08-12T13:50:24;1.05;;;1.05;;
17596;SDS011;8917;50.942;6.946;2023-08-12T13:52:51;0.90;;;0.90;;
17596;SDS011;8917;50.942;6.946;2023-08-12T13:55:18;1.27;;;1.17;;
17596;SDS011;8917;50.942;6.946;2023-08-12T13:57:46;1.20;;;1.10;;
17596;SDS011;8917;50.942;6.946;2023-08-12T14:00:15;1.05;;;1.05;;
17596;SDS011;8917;50.942;6.946;2023-08-12T14:02:42;1.58;;;1.45;;
17596;SDS011;8917;50.942;6.946;2023-08-12T14:05:10;1.83;;;1.45;;
17596;SDS011;8917;50.942;6.946;2023-08-12T14:07:38;2.40;;;1.20;;
17596;SDS011;8917;50.942;6.946;2023-08-12T14:10:06;2.45;;;1.17;;
17596;SDS011;8917;50.942;6.946;2023-08-12T14:12:34;1.38;;;1.20;;
17596;SDS011;8917;50.942;6.946;2023-08-12T14:15:02;0.90;;;0.90;;
17596;SDS011;8917;50.942;6.946;2023-08-12T14:17:31;1.00;;;1.00;;
17596;SDS011;8917;50.942;6.946;2023-08-12T14:19:58;3.45;;;0.93;;
17596;SDS011;8917;50.942;6.946;2023-08-12T14:22:26;1.75;;;0.98;;
17596;SDS011;8917;50.942;6.946;2023-08-12T14:24:54;1.15;;;1.02;;
17596;SDS011;8917;50.942;6.946;2023-08-12T14:27:21;1.08;;;0.98;;
17596;SDS011;8917;50.942;6.946;2023-08-12T14:29:48;0.80;;;0.80;;
17596;SDS011;8917;50.942;6.946;2023-08-12T14:32:16;1.10;;;0.98;;
17596;SDS011;8917;50.942;6.946;2023-08-12T14:34:45;1.48;;;1.38;;
17596;SDS011;8917;50.942;6.946;2023-08-12T14:37:13;1.20;;;1.10;;
17596;SDS011;8917;50.942;6.946;2023-08-12T14:39:41;1.02;;;0.93;;
17596;SDS011;8917;50.942;6.946;2023-08-12T14:42:08;0.88;;;0.88;;
17596;SDS011;8917;50.942;6.946;2023-08-12T14:44:36;1.73;;;0.95;;
17596;SDS011;8917;50.942;6.946;2023-08-12T14:47:04;1.40;;;1.08;;
17596;SDS011;8917;50.942;6.946;2023-08-12T14:49:31;1.55;;;1.00;;
17596;SDS011;8917;50.942;6.946;2023-08-12T14:52:00;1.30;;;1.20;;
17596;SDS011;8917;50.942;6.946;2023-08-12T14:54:28;1.30;;;0.90;;
17596;SDS011;8917;50.942;6.946;2023-08-12T14:56:55;1.10;;;1.00;;
17596;SDS011;8917;50.942;6.946;2023-08-12T14:59:22;2.30;;;1.20;;
17596;SDS011;8917;50.942;6.946;2023-08-12T15:01:49;1.33;;;1.10;;